White Lake, Michigan
Current Conditions -  °F | °C
As of 12:53 PM on Monday 26 Jan 2015 (Local Time) from KPTK Reporting Station
Broken Clouds Broken Clouds  
Wind Chill: 11°   Ceiling: 25000
Heat Index: 21°   Visibility: 10mi
Dew Point:   Wind: 9mph
Humidity: 60%   Direction: 70°ENE
Pressure: 29.89"   Gusts: NA
Location:  42.69°N, 83.55°W
Report Text: KPTK 261753Z 07008KT 10SM BKN250 M06/M13 A2989 RMK AO2 SLP137 4/002 933002 T10611128 11056 21144 58014
Loading
Personal Weather Stations






























Interactive Weather Map New forecast layout! Learn more

10-Day Weather Forecast

Advertisements
Track Severe Weather on mobile